KMOP/MOP METAR and TAF weather

Enter ICAO airport designator
Station Type Date Time Source
KMOP METAR 2019/10/15 18:37 UTC NOAA

KMOP 151837Z AUTO 12010KT 10SM -RA SCT035 SCT060 OVC090 12/05 A2981 RMK AO2 T01150053


Station Type Date Time Source
KMOP Decoded METAR 2019/10/15 18:37 UTC NOAA

Mount Pleasant, Mount Pleasant Municipal Airport, MI, United States (KMOP) 43-37N 84-44W
Oct 15, 2019 - 02:37 PM EDT / 2019.10.15 1837 UTC
Wind: from the ESE (120 degrees) at 12 MPH (10 KT):0
Visibility: 10 mile(s):0
Sky conditions: overcast
Weather: light rain
Temperature: 52.7 F (11.5 C)
Dew Point: 41.5 F (5.3 C)
Relative Humidity: 65%
Pressure (altimeter): 29.81 in. Hg (1009 hPa)
ob: KMOP 151837Z AUTO 12010KT 10SM -RA SCT035 SCT060 OVC090 12/05 A2981 RMK AO2 T01150053
cycle: 18

Station Type Date Time Source
KMOP TAF UTC NOAA

Error!

Example: see airport list